Time;durP1;ratioP1;P1;durP2;ratioP2;P2;SDS_P1;SDS_P2;PMS_P1;PMS_P2;Temp;Humidity;BMP_temperature;BMP_pressure;BME280_temperature;BME280_humidity;BME280_pressure;Samples;Min_cycle;Max_cycle;Signal;HPM_P1;HPM_P2
2021/12/17 00:00:45;;;;;;;121.00;46.77;;;9.70;99.90;;;;;;5042530;28;20438;-82
2021/12/17 00:03:33;;;;;;;112.00;47.27;;;9.70;99.90;;;;;;5088878;28;20419;-82
2021/12/17 00:06:13;;;;;;;136.07;51.37;;;9.70;99.90;;;;;;5084018;28;20453;-84
2021/12/17 00:08:42;;;;;;;118.27;45.70;;;9.90;99.90;;;;;;5055415;28;20444;-84
2021/12/17 00:11:10;;;;;;;121.03;48.10;;;9.70;99.90;;;;;;5062332;28;20442;-83
2021/12/17 00:13:37;;;;;;;124.10;45.30;;;9.90;99.90;;;;;;5058806;28;20428;-84
2021/12/17 00:16:12;;;;;;;107.53;46.10;;;9.80;99.90;;;;;;5041211;28;20454;-81
2021/12/17 00:18:51;;;;;;;101.30;44.63;;;9.70;99.90;;;;;;5041339;28;20955;-83
2021/12/17 00:48:36;;;;;;;107.87;45.93;;;9.90;99.90;;;;;;5075555;28;20443;-83
2021/12/17 00:51:40;;;;;;;112.40;46.77;;;9.60;99.90;;;;;;5055552;28;20482;-81
2021/12/17 00:54:17;;;;;;;110.80;44.60;;;9.80;99.90;;;;;;5061487;28;20863;-82
2021/12/17 00:56:43;;;;;;;105.30;44.50;;;9.60;99.90;;;;;;5061693;28;20518;-84
2021/12/17 00:59:09;;;;;;;114.00;46.23;;;9.70;99.90;;;;;;5057770;28;20459;-84
2021/12/17 01:01:37;;;;;;;104.97;44.60;;;9.60;99.90;;;;;;5056667;28;20213;-83
2021/12/17 01:04:03;;;;;;;96.77;43.40;;;9.40;99.90;;;;;;5062510;28;20200;-82
2021/12/17 01:06:29;;;;;;;87.37;40.10;;;9.80;99.90;;;;;;5039049;28;20453;-84
2021/12/17 01:08:55;;;;;;;101.97;41.57;;;9.50;99.90;;;;;;5040302;28;20545;-83
2021/12/17 01:11:22;;;;;;;84.80;39.20;;;9.60;99.90;;;;;;5055724;28;20189;-85
2021/12/17 01:13:48;;;;;;;97.30;44.43;;;9.70;99.90;;;;;;5054381;28;20510;-84
2021/12/17 01:16:14;;;;;;;96.57;43.17;;;9.90;99.90;;;;;;5073396;28;20427;-83
2021/12/17 01:21:25;;;;;;;98.97;43.10;;;10.00;99.90;;;;;;5075215;28;20429;-84
2021/12/17 01:43:12;;;;;;;91.93;38.33;;;9.60;99.90;;;;;;5070147;28;20528;-83
2021/12/17 01:45:40;;;;;;;99.00;44.43;;;9.60;99.90;;;;;;5056692;28;20435;-85
2021/12/17 01:48:11;;;;;;;104.47;43.30;;;9.80;99.90;;;;;;5074039;28;20526;-83
2021/12/17 02:01:33;;;;;;;100.97;43.00;;;9.60;99.90;;;;;;5070693;28;20475;-85
2021/12/17 02:03:58;;;;;;;94.00;41.13;;;9.60;99.90;;;;;;5057755;28;20931;-84
2021/12/17 02:06:27;;;;;;;89.90;41.10;;;9.70;99.90;;;;;;5040111;28;20416;-84
2021/12/17 02:08:54;;;;;;;96.90;41.70;;;9.50;99.90;;;;;;5065380;28;20197;-84
2021/12/17 02:12:02;;;;;;;82.57;40.87;;;9.50;99.90;;;;;;5037279;28;20428;-83
2021/12/17 02:19:46;;;;;;;94.07;40.43;;;9.50;99.90;;;;;;5058100;28;20459;-84
2021/12/17 02:33:04;;;;;;;82.30;38.47;;;9.70;99.90;;;;;;5061798;28;20469;-84
2021/12/17 02:35:35;;;;;;;91.37;38.23;;;9.70;99.90;;;;;;5065800;28;20467;-84
2021/12/17 02:38:02;;;;;;;77.83;39.43;;;9.60;99.90;;;;;;5071086;28;20201;-83
2021/12/17 02:45:43;;;;;;;76.00;40.00;;;9.90;99.90;;;;;;5047011;28;20432;-83
2021/12/17 02:48:11;;;;;;;72.20;38.17;;;9.60;99.90;;;;;;5070648;28;20446;-85
2021/12/17 02:50:43;;;;;;;74.20;35.30;;;9.50;99.90;;;;;;5081365;28;20207;-85
2021/12/17 02:53:09;;;;;;;66.50;35.27;;;9.40;99.90;;;;;;5064739;28;20428;-83
2021/12/17 02:55:40;;;;;;;75.63;37.50;;;9.50;99.90;;;;;;5041240;28;20464;-84
2021/12/17 02:58:08;;;;;;;58.90;34.00;;;9.60;99.90;;;;;;5060583;28;20463;-85
2021/12/17 03:00:35;;;;;;;58.00;32.30;;;9.50;99.90;;;;;;5056456;28;20420;-85
2021/12/17 03:03:03;;;;;;;65.70;34.73;;;9.70;99.90;;;;;;5074842;28;20408;-84
2021/12/17 03:05:29;;;;;;;55.13;31.30;;;9.60;99.90;;;;;;5028362;28;20435;-84
2021/12/17 03:07:56;;;;;;;54.43;30.87;;;9.60;99.90;;;;;;5060950;28;20451;-85
2021/12/17 03:10:23;;;;;;;52.57;29.53;;;9.60;99.90;;;;;;5057614;28;20424;-84
2021/12/17 03:12:58;;;;;;;54.10;29.73;;;9.60;99.90;;;;;;5073622;28;20447;-83
2021/12/17 03:23:32;;;;;;;54.70;31.50;;;9.60;99.90;;;;;;5061429;28;20448;-84
2021/12/17 03:26:04;;;;;;;57.70;32.03;;;9.60;99.90;;;;;;5057299;28;20415;-85
2021/12/17 03:28:31;;;;;;;56.70;31.90;;;9.70;99.90;;;;;;5060380;28;20451;-83
2021/12/17 03:30:57;;;;;;;47.77;30.20;;;9.70;99.90;;;;;;5075112;28;20948;-83
2021/12/17 03:33:23;;;;;;;46.50;29.97;;;9.90;99.90;;;;;;5039297;28;20431;-83
2021/12/17 03:35:50;;;;;;;55.37;31.80;;;9.70;99.90;;;;;;5085195;28;20497;-84
2021/12/17 03:38:16;;;;;;;53.37;30.13;;;9.90;99.90;;;;;;5081237;28;20208;-85
2021/12/17 03:40:43;;;;;;;51.37;31.40;;;9.70;99.90;;;;;;5041707;28;20426;-82
2021/12/17 03:43:14;;;;;;;47.47;29.33;;;9.80;99.90;;;;;;5058624;28;20441;-82
2021/12/17 03:45:41;;;;;;;45.53;26.73;;;9.60;99.90;;;;;;5056857;28;20420;-83
2021/12/17 03:48:08;;;;;;;51.10;29.97;;;9.70;99.90;;;;;;5080027;28;20440;-84
2021/12/17 03:50:36;;;;;;;48.33;27.20;;;9.60;99.90;;;;;;5075614;28;20419;-83
2021/12/17 03:53:07;;;;;;;47.17;27.40;;;9.50;99.90;;;;;;5075703;28;20472;-82
2021/12/17 03:55:33;;;;;;;52.30;27.83;;;9.70;99.90;;;;;;5064523;28;20455;-83
2021/12/17 03:57:59;;;;;;;50.20;29.00;;;9.60;99.90;;;;;;5041701;28;20594;-83
2021/12/17 04:00:27;;;;;;;43.80;28.47;;;9.40;99.90;;;;;;5059708;28;20948;-82
2021/12/17 04:02:53;;;;;;;51.17;29.77;;;9.40;99.90;;;;;;5039325;28;20844;-84
2021/12/17 04:05:19;;;;;;;48.73;27.77;;;9.50;99.90;;;;;;5055522;28;20420;-83
2021/12/17 04:07:44;;;;;;;53.30;30.97;;;9.80;99.90;;;;;;5059413;28;20451;-83
2021/12/17 04:10:11;;;;;;;58.27;30.97;;;9.60;99.90;;;;;;5052239;28;20949;-84
2021/12/17 04:13:00;;;;;;;56.40;30.40;;;9.50;99.90;;;;;;5050848;28;20189;-84
2021/12/17 04:15:35;;;;;;;49.40;29.27;;;9.60;99.90;;;;;;5072932;28;20489;-84
2021/12/17 04:18:04;;;;;;;51.27;28.87;;;9.50;99.90;;;;;;5040253;28;20541;-84
2021/12/17 04:20:30;;;;;;;61.37;30.47;;;9.70;99.90;;;;;;5074880;28;20419;-83
2021/12/17 04:22:56;;;;;;;53.10;29.87;;;9.60;99.90;;;;;;5056615;28;20518;-83
2021/12/17 04:25:22;;;;;;;54.43;31.57;;;9.50;99.90;;;;;;5061759;28;20243;-83
2021/12/17 04:27:48;;;;;;;53.40;30.13;;;9.50;99.90;;;;;;5055191;28;20716;-83
2021/12/17 04:30:14;;;;;;;52.20;31.20;;;9.60;99.90;;;;;;5036017;28;20440;-84
2021/12/17 04:32:40;;;;;;;51.00;28.67;;;9.60;99.90;;;;;;5073707;28;20185;-83
2021/12/17 04:35:05;;;;;;;55.67;31.03;;;9.60;99.90;;;;;;5056071;28;20455;-81
2021/12/17 04:37:31;;;;;;;59.03;31.23;;;9.70;99.90;;;;;;5056678;28;20205;-82
2021/12/17 04:39:57;;;;;;;52.93;31.20;;;9.60;99.90;;;;;;5028754;28;20548;-82
2021/12/17 04:42:57;;;;;;;61.23;33.00;;;9.50;99.90;;;;;;5055735;28;20956;-82
2021/12/17 04:45:09;;;;;;;72.70;34.50;;;9.60;99.90;;;;;;5068828;28;20232;-82
2021/12/17 04:58:32;;;;;;;84.10;38.67;;;9.60;99.90;;;;;;5072091;28;20454;-83
2021/12/17 05:00:58;;;;;;;83.27;38.53;;;10.00;99.90;;;;;;5038074;28;20474;-81
2021/12/17 05:03:24;;;;;;;79.63;34.63;;;9.70;99.90;;;;;;5034671;28;20221;-81
2021/12/17 05:05:50;;;;;;;77.83;35.23;;;9.70;99.90;;;;;;5036608;28;20455;-82
2021/12/17 05:08:19;;;;;;;80.43;38.17;;;9.60;99.90;;;;;;5052600;28;20257;-82
2021/12/17 05:11:16;;;;;;;88.47;40.27;;;9.60;99.90;;;;;;5045265;28;20198;-81
2021/12/17 05:19:10;;;;;;;77.13;35.27;;;9.60;99.90;;;;;;5073110;28;21119;-81
2021/12/17 05:21:35;;;;;;;84.80;38.40;;;9.60;99.90;;;;;;5067085;28;20458;-81
2021/12/17 05:24:01;;;;;;;91.03;41.10;;;9.60;99.90;;;;;;5066035;28;20415;-82
2021/12/17 05:26:27;;;;;;;77.50;36.93;;;9.60;99.90;;;;;;5056086;28;20276;-83
2021/12/17 05:28:55;;;;;;;84.80;38.83;;;9.60;99.90;;;;;;5022513;28;20220;-82
2021/12/17 05:31:21;;;;;;;82.37;40.60;;;9.60;99.90;;;;;;5072535;28;20649;-82
2021/12/17 05:33:48;;;;;;;85.10;37.07;;;9.80;99.90;;;;;;5055104;28;20419;-83
2021/12/17 05:36:14;;;;;;;83.53;37.53;;;9.70;99.90;;;;;;5072238;28;20427;-83
2021/12/17 05:38:40;;;;;;;101.40;39.07;;;9.60;99.90;;;;;;5058440;28;20439;-83
2021/12/17 05:41:07;;;;;;;83.70;36.40;;;9.60;99.90;;;;;;5071534;28;20542;-81
2021/12/17 05:43:36;;;;;;;97.70;40.63;;;9.60;99.90;;;;;;5070414;28;20431;-82
2021/12/17 05:48:33;;;;;;;100.73;40.30;;;9.70;99.90;;;;;;5050859;28;21301;-83
2021/12/17 05:51:01;;;;;;;91.60;39.10;;;9.70;99.90;;;;;;5032214;28;20424;-81
2021/12/17 05:53:28;;;;;;;97.23;39.10;;;9.70;99.90;;;;;;5068517;28;20419;-83
2021/12/17 05:55:54;;;;;;;81.27;36.63;;;9.70;99.90;;;;;;5070118;28;20459;-81
2021/12/17 05:58:21;;;;;;;90.60;38.47;;;9.70;99.90;;;;;;5072004;28;20463;-83
2021/12/17 06:00:47;;;;;;;85.47;36.13;;;9.70;99.90;;;;;;5058248;28;20415;-83
2021/12/17 06:03:12;;;;;;;88.77;39.60;;;9.60;99.90;;;;;;5058309;28;20449;-82
2021/12/17 06:05:39;;;;;;;83.67;39.30;;;9.70;99.90;;;;;;5059782;28;20196;-81
2021/12/17 06:08:05;;;;;;;87.03;39.40;;;9.50;99.90;;;;;;5059327;28;20217;-82
2021/12/17 06:10:31;;;;;;;87.97;37.67;;;9.60;99.90;;;;;;5076676;28;20520;-82
2021/12/17 06:12:57;;;;;;;80.33;36.97;;;9.80;99.90;;;;;;5055243;28;20446;-83
2021/12/17 06:15:23;;;;;;;78.73;36.23;;;9.70;99.90;;;;;;5038508;28;20464;-82
2021/12/17 06:17:50;;;;;;;77.80;36.30;;;9.60;99.90;;;;;;5093281;28;20670;-84
2021/12/17 06:20:19;;;;;;;84.23;36.67;;;9.60;99.90;;;;;;5070161;28;20981;-83
2021/12/17 06:22:45;;;;;;;67.27;29.93;;;9.70;99.90;;;;;;5043607;28;20892;-83
2021/12/17 06:25:11;;;;;;;68.43;32.90;;;9.60;99.90;;;;;;5059909;28;20420;-80
2021/12/17 06:27:38;;;;;;;63.50;30.40;;;9.70;99.90;;;;;;5089517;28;20918;-83
2021/12/17 06:30:06;;;;;;;55.87;29.80;;;9.60;99.90;;;;;;5044765;28;21102;-84
2021/12/17 06:32:32;;;;;;;53.73;28.97;;;9.60;99.90;;;;;;5059101;28;21054;-84
2021/12/17 06:34:57;;;;;;;59.63;29.90;;;9.60;99.90;;;;;;5079576;28;20609;-83
2021/12/17 06:37:23;;;;;;;54.07;29.03;;;9.60;99.90;;;;;;5061642;28;20212;-81
2021/12/17 06:39:49;;;;;;;55.87;30.47;;;9.80;99.90;;;;;;5077763;28;20183;-83
2021/12/17 06:42:16;;;;;;;59.87;29.90;;;9.70;99.90;;;;;;5077567;28;20416;-85
2021/12/17 06:44:43;;;;;;;53.00;28.43;;;9.40;99.90;;;;;;5043221;28;20843;-81
2021/12/17 07:00:10;;;;;;;44.87;24.60;;;9.60;99.90;;;;;;5060953;28;20424;-83
2021/12/17 07:10:50;;;;;;;48.37;24.77;;;9.50;99.90;;;;;;5074314;28;20450;-83
2021/12/17 07:34:13;;;;;;;38.70;21.37;;;9.70;99.90;;;;;;5030730;28;20500;-83
2021/12/17 07:36:43;;;;;;;34.90;20.63;;;9.50;99.90;;;;;;5072277;28;20228;-82
2021/12/17 07:39:08;;;;;;;46.73;23.07;;;9.50;99.90;;;;;;5043289;28;20444;-83
2021/12/17 07:41:35;;;;;;;35.57;21.03;;;9.50;99.90;;;;;;5052146;28;20973;-83
2021/12/17 07:44:02;;;;;;;37.50;21.20;;;9.40;99.90;;;;;;5081833;28;20244;-83
2021/12/17 07:46:28;;;;;;;37.27;19.60;;;9.50;99.90;;;;;;5081839;28;20435;-82
2021/12/17 07:48:55;;;;;;;36.80;20.47;;;9.60;99.90;;;;;;5052258;28;20802;-82
2021/12/17 07:51:23;;;;;;;35.23;20.83;;;9.50;99.90;;;;;;5051303;28;20466;-83
2021/12/17 07:53:50;;;;;;;34.80;18.50;;;9.40;99.90;;;;;;5075665;28;20498;-82
2021/12/17 07:56:18;;;;;;;31.00;18.17;;;9.50;99.90;;;;;;5046417;28;20415;-83
2021/12/17 07:58:45;;;;;;;29.97;16.53;;;9.50;99.90;;;;;;5049033;28;20499;-84
2021/12/17 08:01:11;;;;;;;27.57;16.37;;;9.50;99.90;;;;;;5069465;28;20451;-82
2021/12/17 08:03:39;;;;;;;24.70;15.10;;;9.60;99.90;;;;;;5032470;28;20496;-82
2021/12/17 08:06:05;;;;;;;24.50;15.03;;;9.60;99.90;;;;;;5048798;28;20424;-82
2021/12/17 08:08:31;;;;;;;21.50;13.77;;;9.50;99.90;;;;;;5052521;28;20439;-83
2021/12/17 08:10:57;;;;;;;21.37;13.70;;;9.50;99.90;;;;;;5067448;28;20421;-83
2021/12/17 08:13:26;;;;;;;25.73;15.37;;;9.60;99.90;;;;;;5070548;28;20655;-82
2021/12/17 08:16:31;;;;;;;23.73;14.67;;;9.60;99.90;;;;;;5046636;28;20468;-83
2021/12/17 08:31:29;;;;;;;18.70;12.70;;;9.30;99.90;;;;;;5072995;28;20444;-84
2021/12/17 08:33:56;;;;;;;25.33;16.50;;;9.40;99.90;;;;;;5045732;28;20587;-82
2021/12/17 08:36:21;;;;;;;27.30;16.40;;;9.40;99.90;;;;;;5068855;28;20174;-84
2021/12/17 08:38:49;;;;;;;29.13;18.23;;;9.30;99.90;;;;;;5039542;28;20447;-84
2021/12/17 08:41:16;;;;;;;27.90;19.17;;;9.30;99.90;;;;;;5048433;28;20192;-83
2021/12/17 08:43:42;;;;;;;23.63;15.63;;;9.30;99.90;;;;;;5052811;28;20665;-82
2021/12/17 08:46:08;;;;;;;26.67;15.87;;;9.40;99.90;;;;;;5058954;28;20583;-83
2021/12/17 08:48:34;;;;;;;24.90;15.83;;;9.40;99.90;;;;;;5051653;28;20447;-82
2021/12/17 08:51:01;;;;;;;20.53;13.73;;;9.30;99.90;;;;;;5041947;28;20424;-83
2021/12/17 08:53:27;;;;;;;18.03;12.10;;;9.20;99.90;;;;;;5040294;28;20439;-84
2021/12/17 08:55:53;;;;;;;18.80;12.50;;;9.40;99.90;;;;;;5047543;28;20452;-83
2021/12/17 08:58:18;;;;;;;15.10;10.90;;;9.30;99.90;;;;;;5070258;28;20211;-84
2021/12/17 09:00:45;;;;;;;14.03;9.77;;;9.30;99.90;;;;;;5037884;28;20641;-83
2021/12/17 09:03:11;;;;;;;13.80;10.13;;;9.40;99.90;;;;;;5057650;28;20181;-83
2021/12/17 09:05:38;;;;;;;16.13;10.40;;;9.50;99.90;;;;;;5048446;28;20412;-82
2021/12/17 09:08:09;;;;;;;13.57;9.50;;;9.60;99.90;;;;;;5038326;28;20451;-83
2021/12/17 09:10:34;;;;;;;13.63;9.53;;;9.70;99.90;;;;;;5030679;28;20432;-83
2021/12/17 09:13:01;;;;;;;14.63;10.37;;;9.50;99.90;;;;;;5034415;28;20478;-82
2021/12/17 09:15:27;;;;;;;12.37;8.87;;;9.60;99.90;;;;;;5054322;28;20312;-83
2021/12/17 09:17:53;;;;;;;12.33;9.17;;;9.40;99.90;;;;;;5074844;28;20470;-83
2021/12/17 09:20:19;;;;;;;12.30;8.77;;;9.60;99.90;;;;;;5073239;28;20439;-84
2021/12/17 09:22:45;;;;;;;12.63;8.80;;;9.50;99.90;;;;;;5072308;28;20657;-83
2021/12/17 09:25:11;;;;;;;14.27;10.20;;;9.50;99.90;;;;;;5075927;28;20442;-83
2021/12/17 09:27:37;;;;;;;13.80;10.17;;;9.40;99.90;;;;;;5057347;28;20200;-83
2021/12/17 09:30:09;;;;;;;13.20;8.90;;;9.50;99.90;;;;;;5040022;28;20509;-82
2021/12/17 09:32:34;;;;;;;14.70;10.13;;;9.50;99.90;;;;;;5054186;28;20213;-83
2021/12/17 09:35:00;;;;;;;15.67;10.20;;;9.60;99.90;;;;;;5075289;28;20447;-83
2021/12/17 09:37:26;;;;;;;11.27;9.13;;;9.50;99.90;;;;;;5024356;28;20201;-82
2021/12/17 09:39:51;;;;;;;15.93;10.87;;;9.40;99.90;;;;;;5073920;28;20264;-83
2021/12/17 09:42:17;;;;;;;21.80;12.00;;;9.50;99.90;;;;;;5026846;28;20189;-84
2021/12/17 09:44:43;;;;;;;13.73;9.30;;;9.50;99.90;;;;;;5037997;28;20233;-83
2021/12/17 09:47:09;;;;;;;13.67;9.43;;;9.50;99.90;;;;;;5075412;28;20201;-83
2021/12/17 09:49:35;;;;;;;16.07;11.17;;;9.40;99.90;;;;;;5031035;28;20424;-84
2021/12/17 09:52:01;;;;;;;12.77;9.83;;;9.50;99.90;;;;;;5071565;28;20789;-84
2021/12/17 09:54:27;;;;;;;13.00;9.30;;;9.70;99.90;;;;;;5060450;28;20471;-80
2021/12/17 09:56:53;;;;;;;14.63;10.13;;;9.50;99.90;;;;;;5073735;28;20427;-83
2021/12/17 09:59:19;;;;;;;12.60;10.07;;;9.40;99.90;;;;;;5035307;28;20450;-83
2021/12/17 10:01:46;;;;;;;12.70;9.40;;;9.40;99.90;;;;;;5077931;28;20211;-84
2021/12/17 10:04:19;;;;;;;11.50;9.20;;;9.30;99.90;;;;;;5076806;28;20185;-84
2021/12/17 10:06:47;;;;;;;13.00;9.43;;;9.50;99.90;;;;;;5077600;28;20420;-83
2021/12/17 10:09:14;;;;;;;13.30;9.33;;;9.40;99.90;;;;;;5032460;28;20981;-83
2021/12/17 10:12:04;;;;;;;12.90;8.90;;;9.50;99.90;;;;;;5061189;28;20450;-83
2021/12/17 10:14:30;;;;;;;15.13;8.70;;;9.50;99.90;;;;;;5050685;28;20466;-83
2021/12/17 10:17:07;;;;;;;13.77;10.40;;;9.50;99.90;;;;;;5053684;28;20431;-83
2021/12/17 10:19:53;;;;;;;13.40;9.20;;;9.50;99.90;;;;;;5077475;28;20510;-82
2021/12/17 10:22:20;;;;;;;14.10;9.47;;;9.60;99.90;;;;;;5032366;28;20427;-83
2021/12/17 10:25:03;;;;;;;12.30;9.00;;;9.60;99.90;;;;;;5011800;28;20466;-82
2021/12/17 10:27:32;;;;;;;14.30;9.50;;;9.50;99.90;;;;;;5060143;28;21057;-81
2021/12/17 10:30:07;;;;;;;12.20;9.40;;;9.50;99.90;;;;;;5041997;28;20447;-83
2021/12/17 10:32:32;;;;;;;15.80;10.20;;;9.50;99.90;;;;;;5078723;28;20513;-82
2021/12/17 10:35:00;;;;;;;14.10;10.80;;;9.50;99.90;;;;;;5049989;28;20487;-82
2021/12/17 10:37:41;;;;;;;13.13;9.10;;;9.70;99.90;;;;;;5036897;28;20206;-83
2021/12/17 10:40:37;;;;;;;11.90;8.50;;;9.60;99.90;;;;;;5061039;28;20415;-83
2021/12/17 10:43:08;;;;;;;10.40;8.80;;;9.60;99.90;;;;;;5063196;28;20963;-82
2021/12/17 10:45:41;;;;;;;9.30;7.90;;;9.60;99.90;;;;;;5055919;28;20447;-82
2021/12/17 10:51:14;;;;;;;9.63;7.50;;;9.50;99.90;;;;;;5047797;28;20463;-83
2021/12/17 10:53:53;;;;;;;11.17;7.57;;;9.60;99.90;;;;;;5066515;28;20427;-83
2021/12/17 10:56:46;;;;;;;10.53;7.30;;;9.80;99.90;;;;;;5023952;28;20446;-82
2021/12/17 10:59:16;;;;;;;9.87;7.00;;;9.90;99.90;;;;;;5059583;28;20628;-83
2021/12/17 11:01:45;;;;;;;8.00;6.73;;;9.80;99.90;;;;;;5076747;28;20467;-83
2021/12/17 11:04:28;;;;;;;8.70;6.77;;;9.70;99.90;;;;;;5058707;28;20480;-83
2021/12/17 11:06:59;;;;;;;11.53;7.13;;;9.90;99.90;;;;;;5070692;28;20564;-81
2021/12/17 11:09:41;;;;;;;8.77;7.87;;;9.60;99.90;;;;;;5075843;28;20419;-84
2021/12/17 11:12:29;;;;;;;9.87;7.50;;;9.80;99.90;;;;;;5070147;28;20419;-83
2021/12/17 11:15:24;;;;;;;10.80;8.37;;;9.70;99.90;;;;;;5070452;28;20455;-83
2021/12/17 11:17:53;;;;;;;9.77;7.67;;;9.50;99.90;;;;;;5045002;28;20831;-83
2021/12/17 11:20:26;;;;;;;9.00;7.30;;;9.50;99.90;;;;;;5034540;28;20484;-82
2021/12/17 11:22:53;;;;;;;8.37;7.13;;;9.60;99.90;;;;;;5072787;28;20443;-83
2021/12/17 11:25:20;;;;;;;10.50;6.50;;;9.80;99.90;;;;;;5070439;28;20426;-84
2021/12/17 11:27:46;;;;;;;7.40;5.53;;;9.50;99.90;;;;;;5053797;28;20447;-84
2021/12/17 11:30:15;;;;;;;8.33;6.63;;;9.60;99.90;;;;;;5060041;28;20443;-84
2021/12/17 11:32:43;;;;;;;8.17;6.00;;;9.70;99.90;;;;;;5061011;28;20434;-84
2021/12/17 11:35:11;;;;;;;7.20;5.90;;;9.80;99.90;;;;;;5061660;28;20467;-83
2021/12/17 11:37:41;;;;;;;8.53;5.03;;;9.70;99.90;;;;;;5060407;28;20450;-82
2021/12/17 11:40:12;;;;;;;7.50;5.73;;;9.60;99.90;;;;;;5035807;28;20471;-84
2021/12/17 11:42:59;;;;;;;6.87;5.00;;;9.60;99.90;;;;;;5059896;28;20422;-82
2021/12/17 11:45:30;;;;;;;7.40;5.57;;;9.70;99.90;;;;;;5077606;28;20443;-83
2021/12/17 11:48:10;;;;;;;6.27;4.80;;;9.60;99.90;;;;;;5076248;28;20525;-83
2021/12/17 11:50:36;;;;;;;7.53;5.37;;;9.50;99.90;;;;;;5060223;28;20439;-83
2021/12/17 11:53:18;;;;;;;6.70;5.10;;;9.70;99.90;;;;;;5046404;28;20582;-83
2021/12/17 11:55:46;;;;;;;5.80;4.40;;;9.60;99.90;;;;;;5061874;28;20216;-83
2021/12/17 11:58:15;;;;;;;4.23;3.63;;;9.60;99.90;;;;;;5040690;28;20497;-82
2021/12/17 12:00:41;;;;;;;3.90;2.83;;;9.60;99.90;;;;;;5049473;28;20785;-82
2021/12/17 12:03:14;;;;;;;2.67;2.47;;;9.60;99.90;;;;;;5078073;28;20511;-82
2021/12/17 12:05:42;;;;;;;4.50;3.30;;;9.50;99.90;;;;;;5059707;28;20197;-82
2021/12/17 12:08:49;;;;;;;4.40;3.57;;;9.60;99.90;;;;;;5056658;28;20451;-82
2021/12/17 12:11:21;;;;;;;4.80;3.63;;;9.60;99.90;;;;;;5047185;28;20986;-83
2021/12/17 12:13:50;;;;;;;6.40;4.53;;;9.60;99.90;;;;;;5049033;28;20998;-83
2021/12/17 12:16:24;;;;;;;6.80;5.33;;;9.70;99.90;;;;;;5073850;28;20440;-84
2021/12/17 12:18:51;;;;;;;6.20;4.60;;;9.50;99.90;;;;;;5059454;28;20445;-82
2021/12/17 12:21:23;;;;;;;4.93;4.20;;;9.60;99.90;;;;;;5037102;28;20945;-82
2021/12/17 12:23:58;;;;;;;6.13;4.87;;;9.70;99.90;;;;;;5050310;28;20428;-82
2021/12/17 12:26:34;;;;;;;4.33;3.93;;;9.60;99.90;;;;;;5052613;28;20431;-82
2021/12/17 12:29:07;;;;;;;4.80;4.33;;;9.70;99.90;;;;;;5069730;28;20450;-83
2021/12/17 12:31:38;;;;;;;5.33;3.67;;;9.70;99.90;;;;;;5054106;28;20948;-82
2021/12/17 12:34:10;;;;;;;4.60;3.80;;;9.60;99.90;;;;;;5056189;28;20420;-81
2021/12/17 12:36:58;;;;;;;5.30;3.27;;;9.60;99.90;;;;;;5042432;28;20434;-81
2021/12/17 12:40:00;;;;;;;4.20;3.70;;;9.70;99.90;;;;;;5063983;28;20916;-82
2021/12/17 12:42:30;;;;;;;4.23;3.00;;;9.60;99.90;;;;;;5045216;28;20419;-82
2021/12/17 12:44:55;;;;;;;4.50;3.63;;;9.50;99.90;;;;;;5046881;28;20420;-83
2021/12/17 12:47:24;;;;;;;4.57;3.67;;;9.40;99.90;;;;;;5046695;28;20526;-82
2021/12/17 12:49:59;;;;;;;4.63;3.70;;;9.50;99.90;;;;;;5075797;28;20230;-83
2021/12/17 12:52:27;;;;;;;3.87;3.00;;;9.20;99.90;;;;;;5064996;28;20525;-81
2021/12/17 12:54:57;;;;;;;4.03;3.20;;;9.40;99.90;;;;;;5075086;28;20470;-82
2021/12/17 12:57:32;;;;;;;3.23;2.80;;;9.50;99.90;;;;;;5074674;28;20971;-82
2021/12/17 13:00:05;;;;;;;3.33;3.03;;;9.40;99.90;;;;;;5044141;28;20521;-81
2021/12/17 13:02:32;;;;;;;8.90;5.17;;;9.40;99.90;;;;;;5082835;28;20428;-83
2021/12/17 13:04:59;;;;;;;7.20;5.90;;;9.90;99.90;;;;;;5054027;28;20506;-81
2021/12/17 13:07:40;;;;;;;7.53;6.00;;;9.40;99.90;;;;;;5049824;28;20497;-83
2021/12/17 13:10:17;;;;;;;9.87;6.10;;;9.30;99.90;;;;;;5035921;28;20481;-82
2021/12/17 13:13:15;;;;;;;8.10;6.27;;;9.40;99.90;;;;;;5068668;28;20449;-81
2021/12/17 13:16:53;;;;;;;7.63;6.00;;;9.40;99.90;;;;;;5073193;28;20549;-81
2021/12/17 13:24:06;;;;;;;10.27;7.80;;;9.30;99.90;;;;;;5070788;28;20412;-82
2021/12/17 13:26:31;;;;;;;8.40;6.70;;;9.30;99.90;;;;;;5050872;28;20416;-83
2021/12/17 13:29:05;;;;;;;8.03;6.57;;;9.40;99.90;;;;;;5068630;28;20485;-83
2021/12/17 13:31:44;;;;;;;7.67;6.60;;;9.60;99.90;;;;;;5053521;28;20223;-83
2021/12/17 13:34:14;;;;;;;10.73;8.00;;;9.30;99.90;;;;;;5033575;28;20839;-82
2021/12/17 13:36:52;;;;;;;9.53;7.70;;;9.60;99.90;;;;;;5046570;28;20870;-83
2021/12/17 13:39:20;;;;;;;9.40;7.80;;;9.40;99.90;;;;;;5038999;28;20933;-83
2021/12/17 13:41:47;;;;;;;10.00;6.70;;;9.30;99.90;;;;;;5042287;28;20783;-81
2021/12/17 13:44:25;;;;;;;6.77;5.80;;;9.50;99.90;;;;;;5054641;28;20436;-81
2021/12/17 13:46:51;;;;;;;8.37;7.20;;;9.60;99.90;;;;;;5063857;28;20929;-81
2021/12/17 13:49:18;;;;;;;5.97;5.33;;;9.30;99.90;;;;;;5075297;28;20431;-83
2021/12/17 13:51:44;;;;;;;9.50;6.00;;;9.30;99.90;;;;;;5055404;28;21105;-81
2021/12/17 13:54:11;;;;;;;6.47;5.77;;;9.20;99.90;;;;;;5058382;28;20423;-85
2021/12/17 13:56:36;;;;;;;8.77;5.93;;;9.20;99.90;;;;;;5058419;28;20181;-82
2021/12/17 13:59:03;;;;;;;6.50;5.70;;;9.20;99.90;;;;;;5049277;28;21250;-81
2021/12/17 14:01:29;;;;;;;8.10;6.57;;;9.30;99.90;;;;;;5050352;28;20212;-83
2021/12/17 14:03:54;;;;;;;6.87;6.17;;;9.30;99.90;;;;;;5073599;28;20956;-83
2021/12/17 14:06:27;;;;;;;7.47;6.17;;;9.20;99.90;;;;;;5074992;28;20688;-82
2021/12/17 14:08:53;;;;;;;7.60;6.43;;;9.20;99.90;;;;;;5058144;28;20242;-84
2021/12/17 14:11:33;;;;;;;11.47;8.57;;;9.30;99.90;;;;;;5057386;28;20522;-83
2021/12/17 14:14:00;;;;;;;14.60;10.53;;;9.20;99.90;;;;;;5059417;28;21059;-82
2021/12/17 14:16:30;;;;;;;13.67;10.00;;;9.30;99.90;;;;;;5063990;28;20438;-81
2021/12/17 14:19:02;;;;;;;11.30;7.93;;;9.20;99.90;;;;;;5076163;28;20443;-80
2021/12/17 14:21:30;;;;;;;9.80;7.63;;;9.40;99.90;;;;;;5070029;28;20440;-82
2021/12/17 14:23:56;;;;;;;10.93;8.10;;;9.30;99.90;;;;;;5070713;28;20769;-82
2021/12/17 14:26:28;;;;;;;8.90;6.90;;;9.10;99.90;;;;;;5058069;28;20416;-82
2021/12/17 14:28:54;;;;;;;10.00;7.50;;;9.30;99.90;;;;;;5044823;28;20448;-81
2021/12/17 14:31:23;;;;;;;13.23;8.43;;;9.30;99.90;;;;;;5074075;28;20504;-82
2021/12/17 14:33:57;;;;;;;10.63;8.20;;;9.30;99.90;;;;;;5042670;28;20181;-83
2021/12/17 14:36:41;;;;;;;12.03;8.90;;;9.30;99.90;;;;;;5066199;28;20435;-83
2021/12/17 14:39:17;;;;;;;12.43;8.57;;;9.30;99.90;;;;;;5059631;28;20462;-82
2021/12/17 14:41:50;;;;;;;14.27;9.50;;;9.30;99.90;;;;;;5058496;28;20426;-81
2021/12/17 14:47:00;;;;;;;14.00;8.93;;;9.20;99.90;;;;;;5050775;28;20420;-82
2021/12/17 14:57:19;;;;;;;13.20;9.60;;;9.20;99.90;;;;;;5049673;28;20420;-82
2021/12/17 15:05:25;;;;;;;14.80;8.83;;;9.10;99.90;;;;;;5082890;28;20458;-81
2021/12/17 15:07:51;;;;;;;13.20;9.00;;;9.00;99.90;;;;;;5077308;28;20857;-82
2021/12/17 15:10:19;;;;;;;11.13;7.83;;;9.10;99.90;;;;;;5058081;28;20424;-82
2021/12/17 15:12:46;;;;;;;11.93;8.67;;;9.10;99.90;;;;;;5057768;28;20439;-83
2021/12/17 15:15:21;;;;;;;12.77;8.97;;;8.90;99.90;;;;;;5075500;28;20447;-82
2021/12/17 15:17:49;;;;;;;11.03;9.10;;;9.00;99.90;;;;;;5057325;28;20459;-83
2021/12/17 15:20:18;;;;;;;13.57;8.90;;;8.90;99.90;;;;;;5058433;28;20437;-83
2021/12/17 15:22:44;;;;;;;10.43;8.23;;;9.00;99.90;;;;;;5057214;28;20420;-80
2021/12/17 15:25:12;;;;;;;12.60;9.17;;;9.20;99.90;;;;;;5049463;28;20428;-82
2021/12/17 15:27:38;;;;;;;13.57;7.70;;;8.90;99.90;;;;;;5076331;28;20447;-84
2021/12/17 15:30:13;;;;;;;12.37;8.27;;;8.90;99.90;;;;;;5078132;28;20500;-83
2021/12/17 15:32:39;;;;;;;17.13;10.77;;;8.90;99.90;;;;;;5034995;28;20588;-82
2021/12/17 15:35:06;;;;;;;14.50;9.50;;;9.10;99.90;;;;;;5065148;28;20455;-83
2021/12/17 15:37:31;;;;;;;17.07;9.33;;;8.90;99.90;;;;;;5074239;28;20554;-82
2021/12/17 15:39:57;;;;;;;12.47;9.90;;;8.90;99.90;;;;;;5036998;28;20452;-83
2021/12/17 15:42:23;;;;;;;16.90;13.20;;;9.00;99.90;;;;;;5055272;28;20980;-84
2021/12/17 15:44:49;;;;;;;16.00;11.80;;;9.20;99.90;;;;;;5062438;28;20696;-82
2021/12/17 15:47:14;;;;;;;30.40;12.27;;;8.90;99.90;;;;;;5053358;28;20471;-84
2021/12/17 15:49:40;;;;;;;19.53;11.40;;;9.00;99.90;;;;;;5047357;28;20212;-84
2021/12/17 15:52:07;;;;;;;24.93;10.07;;;9.20;99.90;;;;;;5056983;28;20267;-84
2021/12/17 15:54:38;;;;;;;13.13;9.00;;;9.00;99.90;;;;;;5074436;28;20458;-83
2021/12/17 15:57:05;;;;;;;14.00;9.60;;;9.10;99.90;;;;;;5060306;28;20522;-82
2021/12/17 15:59:31;;;;;;;12.10;9.50;;;9.00;99.90;;;;;;5045244;28;20460;-83
2021/12/17 16:01:57;;;;;;;13.17;9.07;;;9.10;99.90;;;;;;5072759;28;20435;-82
2021/12/17 16:04:23;;;;;;;10.90;8.23;;;9.10;99.90;;;;;;5074515;28;20424;-84